createdAt,value
2017-12-02T00:02:19.048Z,79.25
2017-12-02T00:04:47.447Z,79.33
2017-12-02T00:07:15.537Z,79.31
2017-12-02T00:09:42.990Z,79.10
2017-12-02T00:12:11.288Z,78.89
2017-12-02T00:14:38.738Z,78.64
2017-12-02T00:17:06.287Z,78.33
2017-12-02T00:19:35.116Z,78.54
2017-12-02T00:22:02.810Z,78.64
2017-12-02T00:24:34.880Z,78.52
2017-12-02T00:27:02.431Z,78.53
2017-12-02T00:29:30.072Z,78.54
2017-12-02T00:32:00.100Z,78.48
2017-12-02T00:34:27.745Z,78.44
2017-12-02T00:36:55.814Z,78.41
2017-12-02T00:39:23.318Z,78.57
2017-12-02T00:41:51.736Z,78.75
2017-12-02T00:44:19.210Z,78.87
2017-12-02T00:46:46.796Z,79.16
2017-12-02T00:49:15.137Z,79.32
2017-12-02T00:51:43.374Z,79.24
2017-12-02T00:54:11.752Z,79.05
2017-12-02T00:56:41.335Z,79.08
2017-12-02T00:59:10.703Z,79.15
2017-12-02T01:01:38.330Z,79.23
2017-12-02T01:04:06.085Z,79.17
2017-12-02T01:06:33.790Z,79.25
2017-12-02T01:09:07.217Z,79.01
2017-12-02T01:11:34.711Z,79.00
2017-12-02T01:14:02.274Z,78.54
2017-12-02T01:16:30.008Z,78.67
2017-12-02T01:18:57.967Z,79.04
2017-12-02T01:21:25.459Z,79.28
2017-12-02T01:23:52.918Z,79.46
2017-12-02T01:26:20.462Z,79.52
2017-12-02T01:28:48.205Z,79.20
2017-12-02T01:31:15.724Z,79.19
2017-12-02T01:33:43.292Z,79.19
2017-12-02T01:36:10.973Z,79.24
2017-12-02T01:38:38.467Z,79.26
2017-12-02T01:41:07.609Z,79.11
2017-12-02T01:43:35.082Z,79.06
2017-12-02T01:46:02.561Z,79.22
2017-12-02T01:48:30.427Z,79.08
2017-12-02T01:50:57.950Z,78.82
2017-12-02T01:53:25.553Z,78.85
2017-12-02T01:55:53.143Z,78.77
2017-12-02T01:58:20.643Z,78.60
2017-12-02T02:00:48.222Z,78.37
2017-12-02T02:03:15.701Z,78.18
2017-12-02T02:05:43.377Z,77.87
2017-12-02T02:08:15.936Z,77.80
2017-12-02T02:10:43.379Z,77.66
2017-12-02T02:13:10.861Z,77.29
2017-12-02T02:15:38.384Z,77.43
2017-12-02T02:18:05.855Z,77.48
2017-12-02T02:20:33.437Z,77.54
2017-12-02T02:23:00.928Z,77.58
2017-12-02T02:25:28.449Z,77.90
2017-12-02T02:28:06.124Z,77.70
2017-12-02T02:30:33.727Z,77.76
2017-12-02T02:33:01.265Z,77.78
2017-12-02T02:35:28.750Z,77.68
2017-12-02T02:38:10.721Z,77.71
2017-12-02T02:40:38.151Z,77.66
2017-12-02T02:43:05.674Z,77.55
2017-12-02T02:45:33.175Z,77.48
2017-12-02T02:48:20.143Z,77.41
2017-12-02T02:50:47.768Z,77.15
2017-12-02T02:53:16.306Z,77.28
2017-12-02T02:55:43.898Z,76.74
2017-12-02T02:58:11.656Z,76.83
2017-12-02T03:00:39.178Z,76.62
2017-12-02T03:03:06.689Z,76.70
2017-12-02T03:05:34.233Z,76.33
2017-12-02T03:10:54.312Z,76.02
2017-12-02T03:13:22.146Z,76.22
2017-12-02T03:15:50.003Z,76.25
2017-12-02T03:18:19.204Z,76.20
2017-12-02T03:20:47.885Z,76.20
2017-12-02T03:23:16.031Z,76.00
2017-12-02T03:25:44.115Z,75.75
2017-12-02T03:28:11.684Z,75.42
2017-12-02T03:30:39.451Z,75.54
2017-12-02T03:33:07.084Z,75.31
2017-12-02T03:35:34.847Z,75.45
2017-12-02T03:38:03.847Z,75.67
2017-12-02T03:40:32.897Z,75.81
2017-12-02T03:43:01.645Z,75.69
2017-12-02T03:45:30.005Z,75.86
2017-12-02T03:47:57.498Z,75.94
2017-12-02T03:50:26.289Z,76.05
2017-12-02T03:52:54.455Z,76.38
2017-12-02T03:55:22.417Z,76.40
2017-12-02T03:57:50.205Z,76.57
2017-12-02T04:02:58.178Z,76.63
2017-12-02T04:05:26.262Z,76.62
2017-12-02T04:07:53.911Z,76.80
2017-12-02T04:10:23.587Z,76.83
2017-12-02T04:12:51.562Z,76.98
2017-12-02T04:15:20.172Z,76.91
2017-12-02T04:17:48.060Z,77.06
2017-12-02T04:20:15.632Z,77.05
2017-12-02T04:22:44.190Z,77.05
2017-12-02T04:25:13.596Z,76.91
2017-12-02T04:27:41.153Z,76.96
2017-12-02T04:30:09.399Z,77.19
2017-12-02T04:32:37.196Z,77.20
2017-12-02T04:35:05.039Z,77.02
2017-12-02T04:37:33.152Z,76.95
2017-12-02T04:40:00.775Z,76.89
2017-12-02T04:42:33.588Z,77.01
2017-12-02T04:45:02.096Z,77.13
2017-12-02T04:47:49.701Z,77.33
2017-12-02T04:50:17.946Z,77.40
2017-12-02T04:52:46.383Z,77.62
2017-12-02T04:55:14.440Z,77.77
2017-12-02T04:57:42.210Z,77.83
2017-12-02T05:00:10.556Z,77.89
2017-12-02T05:02:38.204Z,77.95
2017-12-02T05:05:06.047Z,77.94
2017-12-02T05:07:38.771Z,78.16
2017-12-02T05:10:08.322Z,78.06
2017-12-02T05:12:38.015Z,78.14
2017-12-02T05:15:05.629Z,77.88
2017-12-02T05:17:44.712Z,77.57
2017-12-02T05:20:13.236Z,77.99
2017-12-02T05:22:41.862Z,78.19
2017-12-02T05:25:11.439Z,78.29
2017-12-02T05:28:03.499Z,78.26
2017-12-02T05:30:31.998Z,78.51
2017-12-02T05:32:59.926Z,78.43
2017-12-02T05:35:28.264Z,78.38
2017-12-02T05:37:56.586Z,78.24
2017-12-02T05:40:24.590Z,78.17
2017-12-02T05:42:52.409Z,78.18
2017-12-02T05:45:20.659Z,78.29
2017-12-02T05:50:41.497Z,78.23
2017-12-02T05:53:09.717Z,78.52
2017-12-02T05:55:37.506Z,78.57
2017-12-02T05:58:24.490Z,78.59
2017-12-02T06:00:52.204Z,78.68
2017-12-02T06:03:21.298Z,78.75
2017-12-02T06:05:48.987Z,78.83
2017-12-02T06:08:16.577Z,78.83
2017-12-02T06:10:44.295Z,78.68
2017-12-02T06:13:11.781Z,78.74
2017-12-02T06:15:39.331Z,78.90
2017-12-02T06:18:06.929Z,78.86
2017-12-02T06:20:34.509Z,78.92
2017-12-02T06:23:02.051Z,79.08
2017-12-02T06:25:29.542Z,79.02
2017-12-02T06:27:56.972Z,79.01
2017-12-02T06:30:24.463Z,78.98
2017-12-02T06:32:51.923Z,78.94
2017-12-02T06:35:19.396Z,79.03
2017-12-02T06:40:39.691Z,79.09
2017-12-02T06:43:07.244Z,79.04
2017-12-02T06:45:34.834Z,78.98
2017-12-02T06:48:02.339Z,79.31
2017-12-02T06:50:30.176Z,79.42
2017-12-02T06:52:57.922Z,79.66
2017-12-02T06:55:26.513Z,79.90
2017-12-02T06:57:54.022Z,79.93
2017-12-02T07:00:21.499Z,80.22
2017-12-02T07:02:49.017Z,80.29
2017-12-02T07:05:16.617Z,80.38
2017-12-02T07:07:53.780Z,80.45
2017-12-02T07:10:21.324Z,80.48
2017-12-02T07:12:48.818Z,80.47
2017-12-02T07:15:16.293Z,80.50
2017-12-02T07:17:43.997Z,80.44
2017-12-02T07:20:12.315Z,80.62
2017-12-02T07:22:39.824Z,80.58
2017-12-02T07:25:07.380Z,80.62
2017-12-02T07:30:27.650Z,80.91
2017-12-02T07:32:55.485Z,81.16
2017-12-02T07:35:23.003Z,80.99
2017-12-02T07:37:50.801Z,80.89
2017-12-02T07:40:18.423Z,80.77
2017-12-02T07:42:46.806Z,80.84
2017-12-02T07:45:14.333Z,80.81
2017-12-02T07:50:14.579Z,80.58
2017-12-02T07:52:42.033Z,80.53
2017-12-02T07:55:09.623Z,80.28
2017-12-02T07:57:37.202Z,80.09
2017-12-02T08:00:04.782Z,80.09
2017-12-02T08:02:32.285Z,80.13
2017-12-02T08:04:59.737Z,79.91
2017-12-02T08:09:59.867Z,79.46
2017-12-02T08:12:27.371Z,79.41
2017-12-02T08:14:54.853Z,79.30
2017-12-02T08:17:22.338Z,79.17
2017-12-02T08:19:49.821Z,79.16
2017-12-02T08:22:17.363Z,79.05
2017-12-02T08:24:44.825Z,78.82
2017-12-02T08:27:12.344Z,78.67
2017-12-02T08:29:39.885Z,78.76
2017-12-02T08:32:07.495Z,78.98
2017-12-02T08:34:35.024Z,79.17
2017-12-02T08:37:02.515Z,79.11
2017-12-02T08:42:02.902Z,79.64
2017-12-02T08:44:30.406Z,79.61
2017-12-02T08:46:57.888Z,79.55
2017-12-02T08:49:25.404Z,79.12
2017-12-02T08:51:52.877Z,79.29
2017-12-02T08:54:20.392Z,79.19
2017-12-02T08:56:47.893Z,79.02
2017-12-02T08:59:15.324Z,79.15
2017-12-02T09:01:42.813Z,79.17
2017-12-02T09:04:10.257Z,79.12
2017-12-02T09:06:37.747Z,79.06
2017-12-02T09:09:05.503Z,78.80
2017-12-02T09:11:33.002Z,78.66
2017-12-02T09:14:00.520Z,78.42
2017-12-02T09:16:27.996Z,78.34
2017-12-02T09:18:55.550Z,78.13
2017-12-02T09:21:23.050Z,78.02
2017-12-02T09:23:50.596Z,78.09
2017-12-02T09:26:18.155Z,77.83
2017-12-02T09:28:45.755Z,78.13
2017-12-02T09:31:13.274Z,77.50
2017-12-02T09:33:41.013Z,76.90
2017-12-02T09:36:08.478Z,76.75
2017-12-02T09:38:35.991Z,77.32
2017-12-02T09:41:04.325Z,76.52
2017-12-02T09:43:31.787Z,76.49
2017-12-02T09:48:32.195Z,76.31
2017-12-02T09:51:00.985Z,76.56
2017-12-02T09:53:28.456Z,76.68
2017-12-02T09:55:55.961Z,77.09
2017-12-02T09:58:23.503Z,76.83
2017-12-02T10:00:50.949Z,76.17
2017-12-02T10:03:18.460Z,76.01
2017-12-02T10:08:32.942Z,76.73
2017-12-02T10:11:00.422Z,77.04
2017-12-02T10:13:28.017Z,77.38
2017-12-02T10:15:55.561Z,77.31
2017-12-02T10:18:23.051Z,76.98
2017-12-02T10:20:50.528Z,77.16
2017-12-02T10:23:18.053Z,76.61
2017-12-02T10:25:45.635Z,76.84
2017-12-02T10:28:13.149Z,77.13
2017-12-02T10:30:40.718Z,76.92
2017-12-02T10:33:08.290Z,76.97
2017-12-02T10:35:35.801Z,77.02
2017-12-02T10:38:03.282Z,77.25
2017-12-02T10:40:30.750Z,77.26
2017-12-02T10:42:58.225Z,77.27
2017-12-02T10:45:25.708Z,77.53
2017-12-02T10:47:53.193Z,77.71
2017-12-02T10:50:20.681Z,77.50
2017-12-02T10:52:48.124Z,77.36
2017-12-02T10:55:16.587Z,76.89
2017-12-02T10:57:53.717Z,77.00
2017-12-02T11:00:21.309Z,76.81
2017-12-02T11:02:48.827Z,76.92
2017-12-02T11:05:16.416Z,77.03
2017-12-02T11:07:43.946Z,77.10
2017-12-02T11:10:11.464Z,77.05
2017-12-02T11:12:38.994Z,76.56
2017-12-02T11:15:06.713Z,76.36
2017-12-02T11:17:34.328Z,76.42
2017-12-02T11:20:02.010Z,76.52
2017-12-02T11:22:30.539Z,76.72
2017-12-02T11:24:58.062Z,75.41
2017-12-02T11:27:25.574Z,74.26
2017-12-02T11:29:53.121Z,74.09
2017-12-02T11:32:20.681Z,74.47
2017-12-02T11:34:48.199Z,74.59
2017-12-02T11:37:15.698Z,74.76
2017-12-02T11:39:43.160Z,74.18
2017-12-02T11:42:10.696Z,73.47
2017-12-02T11:44:38.160Z,73.28
2017-12-02T11:47:05.706Z,73.51
2017-12-02T11:49:33.399Z,73.91
2017-12-02T11:52:00.960Z,73.84
2017-12-02T11:54:28.462Z,74.17
2017-12-02T11:56:55.970Z,74.25
2017-12-02T11:59:23.507Z,74.12
2017-12-02T12:01:50.970Z,74.24
2017-12-02T12:04:18.494Z,74.46
2017-12-02T12:06:46.444Z,74.06
2017-12-02T12:09:19.179Z,74.08
2017-12-02T12:11:46.986Z,74.61
2017-12-02T12:14:14.490Z,74.15
2017-12-02T12:16:42.201Z,73.85
2017-12-02T12:19:09.724Z,73.75
2017-12-02T12:21:37.270Z,73.55
2017-12-02T12:24:04.841Z,73.31
2017-12-02T12:26:32.725Z,73.78
2017-12-02T12:29:00.331Z,74.10
2017-12-02T12:31:27.812Z,74.46
2017-12-02T12:33:55.290Z,74.85
2017-12-02T12:36:22.801Z,75.17
2017-12-02T12:38:51.537Z,75.93
2017-12-02T12:41:19.192Z,76.30
2017-12-02T12:43:46.861Z,75.72
2017-12-02T12:46:14.443Z,75.57
2017-12-02T12:48:41.994Z,75.61
2017-12-02T12:51:09.578Z,75.12
2017-12-02T12:53:37.467Z,74.66
2017-12-02T12:56:05.033Z,74.58
2017-12-02T12:58:32.495Z,74.62
2017-12-02T13:01:00.124Z,74.87
2017-12-02T13:03:28.101Z,75.26
2017-12-02T13:05:55.678Z,75.22
2017-12-02T13:08:37.455Z,75.40
2017-12-02T13:11:05.729Z,75.32
2017-12-02T13:13:33.445Z,75.26
2017-12-02T13:16:00.997Z,75.20
2017-12-02T13:18:28.626Z,75.14
2017-12-02T13:20:56.293Z,74.76
2017-12-02T13:23:24.021Z,74.54
2017-12-02T13:25:51.709Z,75.33
2017-12-02T13:28:33.515Z,76.09
2017-12-02T13:31:01.062Z,76.62
2017-12-02T13:33:28.555Z,76.33
2017-12-02T13:35:56.084Z,75.98
2017-12-02T13:38:23.616Z,76.04
2017-12-02T13:40:51.091Z,76.30
2017-12-02T13:43:18.636Z,76.54
2017-12-02T13:45:46.125Z,77.06
2017-12-02T13:48:13.624Z,76.98
2017-12-02T13:50:41.119Z,77.13
2017-12-02T13:53:08.670Z,76.20
2017-12-02T13:55:36.226Z,76.44
2017-12-02T13:58:04.774Z,76.37
2017-12-02T14:00:33.004Z,76.31
2017-12-02T14:03:00.715Z,76.60
2017-12-02T14:05:29.136Z,76.62
2017-12-02T14:07:56.669Z,76.87
2017-12-02T14:10:24.212Z,76.20
2017-12-02T14:12:51.755Z,76.42
2017-12-02T14:15:19.275Z,76.82
2017-12-02T14:17:46.757Z,77.11
2017-12-02T14:20:14.837Z,77.30
2017-12-02T14:22:42.573Z,77.07
2017-12-02T14:25:10.113Z,76.89
2017-12-02T14:27:37.904Z,76.69
2017-12-02T14:30:06.348Z,76.40
2017-12-02T14:32:33.813Z,76.80
2017-12-02T14:35:02.091Z,77.29
2017-12-02T14:40:23.251Z,77.62
2017-12-02T14:42:50.777Z,77.82
2017-12-02T14:45:18.279Z,77.75
2017-12-02T14:50:38.168Z,77.79
2017-12-02T14:53:05.806Z,77.74
2017-12-02T14:55:33.296Z,77.77
2017-12-02T14:58:05.828Z,77.85
2017-12-02T15:00:33.295Z,77.70
2017-12-02T15:03:00.844Z,77.74
2017-12-02T15:05:28.316Z,77.75
2017-12-02T15:07:55.890Z,77.69
2017-12-02T15:10:23.432Z,77.56
2017-12-02T15:12:51.137Z,77.38
2017-12-02T15:15:18.766Z,77.31
2017-12-02T15:17:47.184Z,76.97
2017-12-02T15:20:18.861Z,76.51
2017-12-02T15:22:46.445Z,76.49
2017-12-02T15:25:18.027Z,76.10
2017-12-02T15:27:46.667Z,76.12
2017-12-02T15:30:15.243Z,76.11
2017-12-02T15:32:43.563Z,76.01
2017-12-02T15:35:11.923Z,75.90
2017-12-02T15:37:41.485Z,75.83
2017-12-02T15:40:09.152Z,75.56
2017-12-02T15:42:36.952Z,75.48
2017-12-02T15:45:04.752Z,75.58
2017-12-02T15:53:18.410Z,75.34
2017-12-02T15:55:46.051Z,74.72
2017-12-02T16:00:47.029Z,73.44
2017-12-02T16:03:14.640Z,72.99
2017-12-02T16:05:42.770Z,71.23
2017-12-02T16:08:10.318Z,70.93
2017-12-02T16:10:37.841Z,70.97
2017-12-02T16:13:05.428Z,69.94
2017-12-02T16:15:32.882Z,69.79
2017-12-02T16:18:00.619Z,69.54
2017-12-02T16:20:28.238Z,69.49
2017-12-02T16:22:57.096Z,69.93
2017-12-02T16:25:24.559Z,69.93
2017-12-02T16:27:57.281Z,70.33
2017-12-02T16:30:24.905Z,70.61
2017-12-02T16:32:52.348Z,71.14
2017-12-02T16:35:20.043Z,71.81
2017-12-02T16:37:47.987Z,71.74
2017-12-02T16:40:15.626Z,71.41
2017-12-02T16:42:43.983Z,70.89
2017-12-02T16:45:11.752Z,71.17
2017-12-02T16:47:39.448Z,70.88
2017-12-02T16:50:07.014Z,70.95
2017-12-02T16:52:35.327Z,70.78
2017-12-02T16:55:03.679Z,71.05
2017-12-02T16:57:31.319Z,70.86
2017-12-02T16:59:58.796Z,71.04
2017-12-02T17:02:26.289Z,71.12
2017-12-02T17:04:55.265Z,70.58
2017-12-02T17:07:37.023Z,70.87
2017-12-02T17:10:04.536Z,70.26
2017-12-02T17:12:32.230Z,69.66
2017-12-02T17:14:59.789Z,69.92
2017-12-02T17:17:27.359Z,69.78
2017-12-02T17:19:56.608Z,69.84
2017-12-02T17:22:24.074Z,69.33
2017-12-02T17:24:51.850Z,69.09
2017-12-02T17:27:21.095Z,69.13
2017-12-02T17:29:48.679Z,69.38
2017-12-02T17:32:16.245Z,69.25
2017-12-02T17:34:44.915Z,68.56
2017-12-02T17:37:15.191Z,69.01
2017-12-02T17:39:43.812Z,68.47
2017-12-02T17:42:11.602Z,68.58
2017-12-02T17:44:39.150Z,68.68
2017-12-02T17:47:09.858Z,68.78
2017-12-02T17:49:37.367Z,68.31
2017-12-02T17:52:04.851Z,68.16
2017-12-02T17:54:32.306Z,68.76
2017-12-02T17:56:59.763Z,68.93
2017-12-02T17:59:27.888Z,69.42
2017-12-02T18:01:59.650Z,68.00
2017-12-02T18:04:28.179Z,68.11
2017-12-02T18:06:57.208Z,68.32
2017-12-02T18:12:10.410Z,68.32
2017-12-02T18:14:41.519Z,68.90
2017-12-02T18:17:11.642Z,68.61
2017-12-02T18:19:42.726Z,68.40
2017-12-02T18:22:27.120Z,68.34
2017-12-02T18:24:57.955Z,68.29
2017-12-02T18:27:26.657Z,68.51
2017-12-02T18:29:56.973Z,68.58
2017-12-02T18:32:25.634Z,68.47
2017-12-02T18:34:54.957Z,68.72
2017-12-02T18:40:28.049Z,68.86
2017-12-02T18:42:58.120Z,68.95
2017-12-02T18:45:26.691Z,68.87
2017-12-02T18:48:00.522Z,69.03
2017-12-02T18:55:50.696Z,69.54
2017-12-02T18:58:25.345Z,69.60
2017-12-02T19:08:01.319Z,69.75
2017-12-02T19:10:38.941Z,69.83
2017-12-02T19:13:07.740Z,69.91
2017-12-02T19:15:37.910Z,70.16
2017-12-02T19:18:05.491Z,70.37
2017-12-02T19:20:33.751Z,70.22
2017-12-02T19:23:01.921Z,70.40
2017-12-02T19:25:29.869Z,70.19
2017-12-02T19:28:11.611Z,69.83
2017-12-02T19:30:39.069Z,69.93
2017-12-02T19:33:07.200Z,69.81
2017-12-02T19:35:34.658Z,69.86
2017-12-02T19:38:02.902Z,69.99
2017-12-02T19:40:30.798Z,69.73
2017-12-02T19:42:58.365Z,69.80
2017-12-02T19:45:25.874Z,69.73
2017-12-02T19:47:53.421Z,69.90
2017-12-02T19:50:22.807Z,69.77
2017-12-02T19:52:50.981Z,69.65
2017-12-02T19:55:18.482Z,69.35
2017-12-02T19:57:46.189Z,69.37
2017-12-02T20:00:15.443Z,69.30
2017-12-02T20:02:43.111Z,69.16
2017-12-02T20:05:10.764Z,69.19
2017-12-02T20:07:47.996Z,69.23
2017-12-02T20:12:52.079Z,69.79
2017-12-02T20:15:21.492Z,70.11
2017-12-02T20:17:49.213Z,70.23
2017-12-02T20:20:17.343Z,70.35
2017-12-02T20:22:44.976Z,70.34
2017-12-02T20:25:13.126Z,70.52
2017-12-02T20:27:59.903Z,70.42
2017-12-02T20:30:27.390Z,70.66
2017-12-02T20:32:54.860Z,70.63
2017-12-02T20:35:22.333Z,70.60
2017-12-02T20:37:50.264Z,70.75
2017-12-02T20:40:17.760Z,70.69
2017-12-02T20:42:45.497Z,71.17
2017-12-02T20:45:13.691Z,71.19
2017-12-02T20:47:41.477Z,71.04
2017-12-02T20:50:09.213Z,71.21
2017-12-02T20:52:36.791Z,71.14
2017-12-02T20:55:04.330Z,70.98
2017-12-02T20:57:42.600Z,70.91
2017-12-02T21:00:12.110Z,70.98
2017-12-02T21:02:39.925Z,71.08
2017-12-02T21:05:07.397Z,71.17
2017-12-02T21:10:51.030Z,71.15
2017-12-02T21:13:18.956Z,71.22
2017-12-02T21:15:48.207Z,70.98
2017-12-02T21:18:15.687Z,71.03
2017-12-02T21:20:43.232Z,71.14
2017-12-02T21:23:11.173Z,71.29
2017-12-02T21:25:38.859Z,71.59
2017-12-02T21:28:07.424Z,71.59
2017-12-02T21:30:35.467Z,71.19
2017-12-02T21:33:04.204Z,71.09
2017-12-02T21:35:31.808Z,71.39
2017-12-02T21:37:59.269Z,71.62
2017-12-02T21:40:26.752Z,71.48
2017-12-02T21:42:54.286Z,71.55
2017-12-02T21:45:23.595Z,71.67
2017-12-02T21:47:51.308Z,71.47
2017-12-02T21:50:18.809Z,71.58
2017-12-02T21:52:46.304Z,71.79
2017-12-02T21:55:13.737Z,71.63
2017-12-02T21:57:41.280Z,71.88
2017-12-02T22:00:08.933Z,72.09
2017-12-02T22:02:36.913Z,71.97
2017-12-02T22:05:04.702Z,71.77
2017-12-02T22:07:32.326Z,71.73
2017-12-02T22:10:00.119Z,71.46
2017-12-02T22:12:27.836Z,71.64
2017-12-02T22:14:56.363Z,71.83
2017-12-02T22:17:23.884Z,72.03
2017-12-02T22:19:52.199Z,71.99
2017-12-02T22:22:19.737Z,71.40
2017-12-02T22:24:47.242Z,71.44
2017-12-02T22:27:14.749Z,71.46
2017-12-02T22:29:42.482Z,71.49
2017-12-02T22:32:10.026Z,70.68
2017-12-02T22:34:37.596Z,71.27
2017-12-02T22:37:05.123Z,71.07
2017-12-02T22:39:32.602Z,71.28
2017-12-02T22:42:00.372Z,71.20
2017-12-02T22:44:27.930Z,71.55
2017-12-02T22:46:55.503Z,71.56
2017-12-02T22:49:23.055Z,71.79
2017-12-02T22:51:50.576Z,71.55
2017-12-02T22:54:18.164Z,71.48
2017-12-02T22:56:45.756Z,71.66
2017-12-02T22:59:18.267Z,71.70
2017-12-02T23:01:45.841Z,71.59
2017-12-02T23:04:13.563Z,71.38
2017-12-02T23:06:41.040Z,71.52
2017-12-02T23:09:08.973Z,71.44
2017-12-02T23:11:36.473Z,71.60
2017-12-02T23:14:04.009Z,71.56
2017-12-02T23:16:31.594Z,71.62
2017-12-02T23:18:59.149Z,71.51
2017-12-02T23:21:26.845Z,71.42
2017-12-02T23:23:54.778Z,71.42
2017-12-02T23:26:22.255Z,71.24
2017-12-02T23:28:49.693Z,71.20
2017-12-02T23:31:17.174Z,71.36
2017-12-02T23:33:44.602Z,71.59
2017-12-02T23:36:12.055Z,71.53
2017-12-02T23:41:32.299Z,71.43
2017-12-02T23:43:59.823Z,71.58
2017-12-02T23:46:27.537Z,71.84
2017-12-02T23:48:55.879Z,72.05
2017-12-02T23:51:23.309Z,72.14
2017-12-02T23:53:50.864Z,72.14
2017-12-02T23:56:18.328Z,71.86
2017-12-02T23:58:45.846Z,71.96
